createdAt,value
2022-09-26T00:00:57.263Z,0.00
2022-09-26T00:01:57.244Z,0.00
2022-09-26T00:02:57.215Z,0.00
2022-09-26T00:03:57.112Z,0.00
2022-09-26T00:04:57.112Z,0.00
2022-09-26T00:05:57.105Z,0.00
2022-09-26T00:06:57.082Z,0.00
2022-09-26T00:07:57.063Z,0.00
2022-09-26T00:08:57.055Z,0.00
2022-09-26T00:09:57.036Z,0.00
2022-09-26T00:10:57.036Z,0.00
2022-09-26T00:11:57.017Z,0.00
2022-09-26T00:12:57.002Z,0.00
2022-09-26T00:13:56.987Z,0.00
2022-09-26T00:14:56.971Z,0.00
2022-09-26T00:15:56.971Z,0.00
2022-09-26T00:16:57.023Z,0.00
2022-09-26T00:17:56.934Z,0.00
2022-09-26T00:18:56.922Z,0.00
2022-09-26T00:19:56.905Z,0.00
2022-09-26T00:20:56.914Z,0.00
2022-09-26T00:21:56.893Z,0.00
2022-09-26T00:22:56.874Z,0.00
2022-09-26T00:23:56.851Z,0.00
2022-09-26T00:24:56.847Z,0.00
2022-09-26T00:25:56.846Z,0.00
2022-09-26T00:26:56.825Z,0.00
2022-09-26T00:27:56.808Z,0.00
2022-09-26T00:28:56.792Z,0.00
2022-09-26T00:29:56.785Z,0.00
2022-09-26T00:30:56.898Z,0.00
2022-09-26T00:31:56.751Z,0.00
2022-09-26T00:32:56.742Z,0.00
2022-09-26T00:33:56.724Z,0.00
2022-09-26T00:34:56.721Z,0.00
2022-09-26T00:35:56.710Z,0.00
2022-09-26T00:36:56.692Z,0.00
2022-09-26T00:37:56.670Z,0.00
2022-09-26T00:38:56.664Z,0.00
2022-09-26T00:39:56.654Z,0.00
2022-09-26T00:40:56.691Z,0.00
2022-09-26T00:41:56.622Z,0.00
2022-09-26T00:42:56.616Z,0.00
2022-09-26T00:43:56.592Z,0.00
2022-09-26T00:44:56.583Z,0.00
2022-09-26T00:45:56.631Z,0.00
2022-09-26T00:46:56.558Z,0.00
2022-09-26T00:47:56.542Z,0.00
2022-09-26T00:48:56.529Z,0.00
2022-09-26T00:49:56.528Z,0.00
2022-09-26T00:50:56.504Z,0.00
2022-09-26T00:51:56.486Z,0.00
2022-09-26T00:52:56.480Z,0.00
2022-09-26T00:53:56.485Z,0.00
2022-09-26T00:54:56.462Z,0.00
2022-09-26T00:55:56.435Z,0.00
2022-09-26T00:56:56.422Z,0.00
2022-09-26T00:57:56.414Z,0.00
2022-09-26T00:58:56.401Z,0.00
2022-09-26T00:59:56.401Z,0.00
2022-09-26T01:00:56.477Z,0.00
2022-09-26T01:01:56.455Z,0.00
2022-09-26T01:02:56.346Z,0.00
2022-09-26T01:03:56.335Z,0.00
2022-09-26T01:04:56.334Z,0.00
2022-09-26T01:05:56.309Z,0.00
2022-09-26T01:06:56.291Z,0.00
2022-09-26T01:07:56.280Z,0.00
2022-09-26T01:08:56.272Z,0.00
2022-09-26T01:09:56.261Z,0.00
2022-09-26T01:10:56.241Z,0.00
2022-09-26T01:11:56.220Z,0.00
2022-09-26T01:12:56.222Z,0.00
2022-09-26T01:13:56.203Z,0.00
2022-09-26T01:14:56.201Z,0.00
2022-09-26T01:15:56.181Z,0.00
2022-09-26T01:16:56.204Z,0.00
2022-09-26T01:17:56.143Z,0.00
2022-09-26T01:18:56.143Z,0.00
2022-09-26T01:19:56.131Z,0.00
2022-09-26T01:20:56.110Z,0.00
2022-09-26T01:21:56.101Z,0.00
2022-09-26T01:22:56.091Z,0.00
2022-09-26T01:23:56.072Z,0.00
2022-09-26T01:24:56.073Z,0.00
2022-09-26T01:25:56.051Z,0.00
2022-09-26T01:26:56.038Z,0.00
2022-09-26T01:27:56.021Z,0.00
2022-09-26T01:28:56.011Z,0.00
2022-09-26T01:29:56.010Z,0.00
2022-09-26T01:30:56.003Z,0.00
2022-09-26T01:31:55.967Z,0.00
2022-09-26T01:32:55.963Z,0.00
2022-09-26T01:33:55.941Z,0.00
2022-09-26T01:34:55.940Z,0.00
2022-09-26T01:35:55.923Z,0.00
2022-09-26T01:36:55.916Z,0.00
2022-09-26T01:37:55.889Z,0.00
2022-09-26T01:38:55.892Z,0.00
2022-09-26T01:39:55.859Z,0.00
2022-09-26T01:40:55.869Z,0.00
2022-09-26T01:41:55.839Z,0.00
2022-09-26T01:42:55.831Z,0.00
2022-09-26T01:43:55.819Z,0.00
2022-09-26T01:44:55.815Z,0.00
2022-09-26T01:45:55.814Z,0.00
2022-09-26T01:46:55.768Z,0.00
2022-09-26T01:47:55.757Z,0.00
2022-09-26T01:48:55.764Z,0.00
2022-09-26T01:49:55.732Z,0.00
2022-09-26T01:50:55.725Z,0.00
2022-09-26T01:51:55.699Z,0.00
2022-09-26T01:52:55.692Z,0.00
2022-09-26T01:53:55.709Z,0.00
2022-09-26T01:54:55.670Z,0.00
2022-09-26T01:55:55.652Z,0.00
2022-09-26T01:56:55.652Z,0.00
2022-09-26T01:57:55.627Z,0.00
2022-09-26T01:58:55.629Z,0.00
2022-09-26T01:59:55.597Z,0.00
2022-09-26T02:00:55.626Z,0.00
2022-09-26T02:01:55.636Z,0.00
2022-09-26T02:02:55.557Z,0.00
2022-09-26T02:03:55.560Z,0.00
2022-09-26T02:04:55.541Z,0.00
2022-09-26T02:05:55.519Z,0.00
2022-09-26T02:06:55.505Z,0.00
2022-09-26T02:07:55.510Z,0.00
2022-09-26T02:08:55.499Z,0.00
2022-09-26T02:09:55.479Z,0.00
2022-09-26T02:10:55.457Z,0.00
2022-09-26T02:11:55.444Z,0.00
2022-09-26T02:12:55.458Z,0.00
2022-09-26T02:13:55.428Z,0.00
2022-09-26T02:14:55.408Z,0.00
2022-09-26T02:15:55.388Z,0.00
2022-09-26T02:16:55.408Z,0.00
2022-09-26T02:17:55.366Z,0.00
2022-09-26T02:18:55.365Z,0.00
2022-09-26T02:19:55.336Z,0.00
2022-09-26T02:20:55.329Z,0.00
2022-09-26T02:21:55.318Z,0.00
2022-09-26T02:22:55.298Z,0.00
2022-09-26T02:23:55.296Z,0.00
2022-09-26T02:24:55.266Z,0.00
2022-09-26T02:25:55.269Z,0.00
2022-09-26T02:26:55.245Z,0.00
2022-09-26T02:27:55.243Z,0.00
2022-09-26T02:28:55.226Z,0.00
2022-09-26T02:29:55.209Z,0.00
2022-09-26T02:30:55.194Z,0.00
2022-09-26T02:31:55.224Z,0.00
2022-09-26T02:32:55.179Z,0.00
2022-09-26T02:33:55.157Z,0.00
2022-09-26T02:34:55.137Z,0.00
2022-09-26T02:35:55.133Z,0.00
2022-09-26T02:36:55.114Z,0.00
2022-09-26T02:37:55.122Z,0.00
2022-09-26T02:38:55.088Z,0.00
2022-09-26T02:39:55.079Z,0.00
2022-09-26T02:40:55.100Z,0.00
2022-09-26T02:41:55.057Z,0.00
2022-09-26T02:42:55.047Z,0.00
2022-09-26T02:43:55.027Z,0.00
2022-09-26T02:44:55.012Z,0.00
2022-09-26T02:45:55.057Z,0.00
2022-09-26T02:46:54.988Z,0.00
2022-09-26T02:47:54.992Z,0.00
2022-09-26T02:48:54.957Z,0.00
2022-09-26T02:49:54.946Z,0.00
2022-09-26T02:50:54.930Z,0.00
2022-09-26T02:51:54.927Z,0.00
2022-09-26T02:52:54.916Z,0.00
2022-09-26T02:53:54.897Z,0.00
2022-09-26T02:54:54.876Z,0.00
2022-09-26T02:55:54.869Z,0.00
2022-09-26T02:56:54.856Z,0.00
2022-09-26T02:57:54.856Z,0.00
2022-09-26T02:58:54.824Z,0.00
2022-09-26T02:59:54.828Z,0.00
2022-09-26T03:00:54.842Z,0.00
2022-09-26T03:01:54.794Z,0.00
2022-09-26T03:02:54.787Z,0.00
2022-09-26T03:03:54.775Z,0.00
2022-09-26T03:04:54.793Z,0.00
2022-09-26T03:05:54.734Z,0.00
2022-09-26T03:06:54.719Z,0.00
2022-09-26T03:07:54.720Z,0.00
2022-09-26T03:08:54.695Z,0.00
2022-09-26T03:09:54.693Z,0.00
2022-09-26T03:10:54.664Z,0.00
2022-09-26T03:11:54.667Z,0.00
2022-09-26T03:12:54.655Z,0.00
2022-09-26T03:13:54.636Z,0.00
2022-09-26T03:14:58.565Z,0.00
2022-09-26T03:15:54.611Z,0.00
2022-09-26T03:16:54.650Z,0.00
2022-09-26T03:17:54.601Z,0.00
2022-09-26T03:18:54.573Z,0.00
2022-09-26T03:19:54.556Z,0.00
2022-09-26T03:20:54.536Z,0.00
2022-09-26T03:21:54.534Z,0.00
2022-09-26T03:22:54.514Z,0.00
2022-09-26T03:23:54.509Z,0.00
2022-09-26T03:24:54.492Z,0.00
2022-09-26T03:25:54.465Z,0.00
2022-09-26T03:26:54.465Z,0.00
2022-09-26T03:27:54.453Z,0.00
2022-09-26T03:28:54.423Z,0.00
2022-09-26T03:29:54.426Z,0.00
2022-09-26T03:30:54.405Z,0.00
2022-09-26T03:31:54.447Z,0.00
2022-09-26T03:32:54.394Z,0.00
2022-09-26T03:33:54.384Z,0.00
2022-09-26T03:34:54.361Z,0.00
2022-09-26T03:35:54.343Z,0.00
2022-09-26T03:36:54.325Z,0.00
2022-09-26T03:37:54.326Z,0.00
2022-09-26T03:38:54.298Z,0.00
2022-09-26T03:39:54.296Z,0.00
2022-09-26T03:40:54.366Z,0.00
2022-09-26T03:41:54.285Z,0.00
2022-09-26T03:42:54.254Z,0.00
2022-09-26T03:43:54.242Z,0.00
2022-09-26T03:44:54.227Z,0.00
2022-09-26T03:45:54.227Z,0.00
2022-09-26T03:46:54.215Z,0.00
2022-09-26T03:47:54.194Z,0.00
2022-09-26T03:48:54.178Z,0.00
2022-09-26T03:49:54.162Z,0.00
2022-09-26T03:50:54.143Z,0.00
2022-09-26T03:51:54.151Z,0.00
2022-09-26T03:52:54.119Z,0.00
2022-09-26T03:53:54.114Z,0.00
2022-09-26T03:54:54.094Z,0.00
2022-09-26T03:55:54.081Z,0.00
2022-09-26T03:56:54.073Z,0.00
2022-09-26T03:57:54.056Z,0.00
2022-09-26T03:58:54.042Z,0.00
2022-09-26T03:59:54.032Z,0.00
2022-09-26T04:00:54.042Z,0.00
2022-09-26T04:01:54.087Z,0.00
2022-09-26T04:02:53.990Z,0.00
2022-09-26T04:03:53.973Z,0.00
2022-09-26T04:04:53.967Z,0.00
2022-09-26T04:05:53.951Z,0.00
2022-09-26T04:06:53.957Z,0.00
2022-09-26T04:07:53.929Z,0.00
2022-09-26T04:08:53.917Z,0.00
2022-09-26T04:09:53.902Z,0.00
2022-09-26T04:10:53.884Z,0.00
2022-09-26T04:11:53.908Z,0.00
2022-09-26T04:12:53.853Z,0.00
2022-09-26T04:13:54.297Z,0.00
2022-09-26T04:14:53.840Z,0.00
2022-09-26T04:15:53.870Z,0.00
2022-09-26T04:16:53.818Z,0.00
2022-09-26T04:17:53.791Z,0.00
2022-09-26T04:18:53.780Z,0.00
2022-09-26T04:19:53.768Z,0.00
2022-09-26T04:20:53.751Z,0.00
2022-09-26T04:21:53.761Z,0.00
2022-09-26T04:22:53.722Z,0.00
2022-09-26T04:23:53.716Z,0.00
2022-09-26T04:24:53.773Z,0.00
2022-09-26T04:25:53.695Z,0.00
2022-09-26T04:26:53.724Z,0.00
2022-09-26T04:27:53.660Z,0.00
2022-09-26T04:28:53.651Z,0.00
2022-09-26T04:29:53.640Z,0.00
2022-09-26T04:30:53.625Z,0.00
2022-09-26T04:31:53.693Z,0.00
2022-09-26T04:32:53.594Z,0.00
2022-09-26T04:33:53.581Z,0.00
2022-09-26T04:34:53.571Z,0.00
2022-09-26T04:35:54.521Z,0.00
2022-09-26T04:36:53.551Z,0.00
2022-09-26T04:37:53.529Z,0.00
2022-09-26T04:38:53.510Z,4.00
2022-09-26T04:39:53.521Z,0.00
2022-09-26T04:40:53.517Z,0.00
2022-09-26T04:41:53.492Z,4.00
2022-09-26T04:42:53.460Z,0.00
2022-09-26T04:43:53.452Z,0.00
2022-09-26T04:44:53.451Z,4.00
2022-09-26T04:45:53.495Z,0.00
2022-09-26T04:46:53.429Z,4.00
2022-09-26T04:47:53.401Z,4.00
2022-09-26T04:48:53.387Z,4.00
2022-09-26T04:49:53.379Z,4.00
2022-09-26T04:50:53.371Z,8.00
2022-09-26T04:51:53.362Z,8.00
2022-09-26T04:52:53.392Z,8.00
2022-09-26T04:53:53.326Z,8.00
2022-09-26T04:54:53.308Z,12.00
2022-09-26T04:55:53.305Z,16.00
2022-09-26T04:56:53.298Z,20.00
2022-09-26T04:57:53.279Z,24.00
2022-09-26T04:58:53.251Z,32.00
2022-09-26T04:59:53.238Z,40.00
2022-09-26T05:00:53.288Z,44.00
2022-09-26T05:01:53.289Z,52.00
2022-09-26T05:02:53.197Z,60.00
2022-09-26T05:03:53.190Z,80.00
2022-09-26T05:04:53.178Z,88.00
2022-09-26T05:05:53.169Z,92.00
2022-09-26T05:06:53.163Z,96.00
2022-09-26T05:07:53.139Z,100.00
2022-09-26T05:08:53.119Z,112.00
2022-09-26T05:09:53.108Z,120.00
2022-09-26T05:10:53.100Z,136.00
2022-09-26T05:11:53.205Z,156.00
2022-09-26T05:12:53.082Z,168.00
2022-09-26T05:13:53.908Z,176.00
2022-09-26T05:14:53.041Z,180.00
2022-09-26T05:15:53.086Z,184.00
2022-09-26T05:16:53.087Z,192.00
2022-09-26T05:17:53.011Z,204.00
2022-09-26T05:18:52.993Z,212.00
2022-09-26T05:19:52.979Z,224.00
2022-09-26T05:20:52.968Z,236.00
2022-09-26T05:21:52.970Z,248.00
2022-09-26T05:22:52.941Z,260.00
2022-09-26T05:23:52.930Z,272.00
2022-09-26T05:24:52.910Z,276.00
2022-09-26T05:25:52.898Z,264.00
2022-09-26T05:26:52.896Z,244.00
2022-09-26T05:27:52.878Z,232.00
2022-09-26T05:28:52.859Z,236.00
2022-09-26T05:29:52.848Z,244.00
2022-09-26T05:30:52.826Z,248.00
2022-09-26T05:31:52.878Z,252.00
2022-09-26T05:32:52.816Z,264.00
2022-09-26T05:33:52.796Z,268.00
2022-09-26T05:34:52.777Z,288.00
2022-09-26T05:35:52.771Z,308.00
2022-09-26T05:36:52.756Z,320.00
2022-09-26T05:37:52.747Z,340.00
2022-09-26T05:38:52.731Z,356.00
2022-09-26T05:39:52.715Z,392.00
2022-09-26T05:40:52.776Z,416.00
2022-09-26T05:41:52.705Z,452.00
2022-09-26T05:42:52.675Z,496.00
2022-09-26T05:43:52.671Z,572.00
2022-09-26T05:44:52.647Z,652.00
2022-09-26T05:45:52.638Z,756.00
2022-09-26T05:46:52.739Z,868.00
2022-09-26T05:47:52.612Z,988.00
2022-09-26T05:48:52.599Z,1092.00
2022-09-26T05:49:52.586Z,1136.00
2022-09-26T05:50:52.579Z,1156.00
2022-09-26T05:51:52.572Z,1212.00
2022-09-26T05:52:52.545Z,1236.00
2022-09-26T05:53:52.543Z,1252.00
2022-09-26T05:54:52.519Z,1336.00
2022-09-26T05:55:52.507Z,1500.00
2022-09-26T05:56:52.497Z,2248.00
2022-09-26T05:57:52.478Z,1492.00
2022-09-26T05:58:52.464Z,1740.00
2022-09-26T05:59:52.459Z,1700.00
2022-09-26T06:00:52.529Z,1648.00
2022-09-26T06:01:52.485Z,1656.00
2022-09-26T06:02:52.416Z,1732.00
2022-09-26T06:03:52.403Z,1852.00
2022-09-26T06:04:52.383Z,2132.00
2022-09-26T06:05:52.374Z,2804.00
2022-09-26T06:06:52.381Z,3740.00
2022-09-26T06:07:52.363Z,2720.00
2022-09-26T06:08:52.345Z,2472.00
2022-09-26T06:09:52.325Z,2968.00
2022-09-26T06:10:52.324Z,2268.00
2022-09-26T06:11:52.306Z,2240.00
2022-09-26T06:12:52.284Z,1996.00
2022-09-26T06:13:52.276Z,1892.00
2022-09-26T06:14:52.258Z,1940.00
2022-09-26T06:15:52.297Z,1888.00
2022-09-26T06:16:52.268Z,1860.00
2022-09-26T06:17:52.213Z,1992.00
2022-09-26T06:18:52.209Z,1880.00
2022-09-26T06:19:52.192Z,4536.00
2022-09-26T06:20:52.191Z,8660.00
2022-09-26T06:21:52.208Z,4284.00
2022-09-26T06:22:52.150Z,2920.00
2022-09-26T06:23:52.131Z,3436.00
2022-09-26T06:24:52.141Z,5500.00
2022-09-26T06:25:52.125Z,6712.00
2022-09-26T06:26:59.094Z,15040.00
2022-09-26T06:27:55.159Z,14432.00
2022-09-26T06:28:53.065Z,5480.00
2022-09-26T06:29:52.057Z,2852.00
2022-09-26T06:30:52.073Z,2636.00
2022-09-26T06:31:52.078Z,4296.00
2022-09-26T06:32:52.024Z,6504.00
2022-09-26T06:33:52.002Z,7172.00
2022-09-26T06:34:51.995Z,3164.00
2022-09-26T06:35:52.004Z,3032.00
2022-09-26T06:36:51.966Z,27872.00
2022-09-26T06:37:51.955Z,3448.00
2022-09-26T06:38:51.961Z,39104.00
2022-09-26T06:39:55.770Z,53472.00
2022-09-26T06:40:52.989Z,5304.00
2022-09-26T06:41:51.905Z,6828.00
2022-09-26T06:42:51.894Z,22752.00
2022-09-26T06:43:51.874Z,51168.00
2022-09-26T06:44:51.878Z,63360.00
2022-09-26T06:45:51.863Z,48640.00
2022-09-26T06:46:51.922Z,0.00
2022-09-26T06:47:51.815Z,24768.00
2022-09-26T06:48:51.805Z,19232.00
2022-09-26T06:49:51.799Z,28480.00
2022-09-26T06:50:51.837Z,19072.00
2022-09-26T06:51:51.779Z,8632.00
2022-09-26T06:52:51.758Z,10308.00
2022-09-26T06:53:51.742Z,4968.00
2022-09-26T06:54:51.736Z,5340.00
2022-09-26T06:55:51.728Z,4796.00
2022-09-26T06:56:51.706Z,8528.00
2022-09-26T06:57:51.694Z,8944.00
2022-09-26T06:58:51.682Z,8260.00
2022-09-26T06:59:51.675Z,19808.00
2022-09-26T07:00:51.709Z,40928.00
2022-09-26T07:01:51.694Z,6720.00
2022-09-26T07:02:51.625Z,11248.00
2022-09-26T07:03:54.292Z,9956.00
2022-09-26T07:04:51.614Z,19520.00
2022-09-26T07:06:01.583Z,20320.00
2022-09-26T07:06:51.572Z,41344.00
2022-09-26T07:07:51.552Z,9160.00
2022-09-26T07:09:02.006Z,23680.00
2022-09-26T07:09:52.555Z,29504.00
2022-09-26T07:10:51.522Z,12416.00
2022-09-26T07:12:13.515Z,24032.00
2022-09-26T07:12:52.521Z,23552.00
2022-09-26T07:13:51.475Z,36832.00
2022-09-26T07:14:53.781Z,55072.00
2022-09-26T07:15:51.550Z,42400.00
2022-09-26T07:16:51.445Z,23264.00
2022-09-26T07:17:51.423Z,21984.00
2022-09-26T07:18:51.412Z,45920.00
2022-09-26T07:19:51.425Z,57760.00
2022-09-26T07:20:56.512Z,42336.00
2022-09-26T07:21:52.377Z,22272.00
2022-09-26T07:22:51.364Z,24512.00
2022-09-26T07:23:51.344Z,30080.00
2022-09-26T07:24:51.384Z,42240.00
2022-09-26T07:25:51.321Z,43040.00
2022-09-26T07:26:51.314Z,29952.00
2022-09-26T07:27:51.293Z,50272.00
2022-09-26T07:28:54.785Z,41280.00
2022-09-26T07:29:51.266Z,22880.00
2022-09-26T07:30:51.258Z,25760.00
2022-09-26T07:31:51.297Z,45504.00
2022-09-26T07:32:51.235Z,68512.00
2022-09-26T07:33:51.259Z,56288.00
2022-09-26T07:34:51.205Z,25984.00
2022-09-26T07:35:51.207Z,21728.00
2022-09-26T07:36:51.185Z,47584.00
2022-09-26T07:37:51.165Z,70112.00
2022-09-26T07:38:51.176Z,49056.00
2022-09-26T07:39:54.090Z,29280.00
2022-09-26T07:40:51.222Z,32288.00
2022-09-26T07:41:51.118Z,37376.00
2022-09-26T07:43:15.418Z,40288.00
2022-09-26T07:45:52.080Z,54080.00
2022-09-26T07:46:51.108Z,28000.00
2022-09-26T07:47:51.063Z,24544.00
2022-09-26T07:48:52.116Z,58656.00
2022-09-26T07:49:51.064Z,77504.00
2022-09-26T07:50:51.006Z,46912.00
2022-09-26T07:51:50.998Z,20864.00
2022-09-26T07:52:51.002Z,37376.00
2022-09-26T07:53:50.988Z,58688.00
2022-09-26T07:54:50.947Z,40000.00
2022-09-26T07:55:50.940Z,34272.00
2022-09-26T07:56:50.932Z,38784.00
2022-09-26T07:57:50.913Z,34016.00
2022-09-26T07:58:50.930Z,30752.00
2022-09-26T07:59:50.878Z,50464.00
2022-09-26T08:00:50.890Z,65760.00
2022-09-26T08:01:50.935Z,32096.00
2022-09-26T08:02:51.038Z,17248.00
2022-09-26T08:03:50.839Z,49888.00
2022-09-26T08:04:50.832Z,64224.00
2022-09-26T08:05:50.880Z,33760.00
2022-09-26T08:06:50.803Z,23552.00
2022-09-26T08:07:50.796Z,37344.00
2022-09-26T08:08:50.783Z,36736.00
2022-09-26T08:09:50.779Z,33248.00
2022-09-26T08:10:50.743Z,45056.00
2022-09-26T08:11:50.731Z,29984.00
2022-09-26T08:12:50.775Z,22560.00
2022-09-26T08:13:50.714Z,52992.00
2022-09-26T08:14:50.694Z,59776.00
2022-09-26T08:15:50.750Z,25536.00
2022-09-26T08:16:50.671Z,28672.00
2022-09-26T08:17:50.656Z,55744.00
2022-09-26T08:18:50.710Z,41440.00
2022-09-26T08:19:50.654Z,29024.00
2022-09-26T08:20:50.646Z,36448.00
2022-09-26T08:21:50.611Z,30560.00
2022-09-26T08:22:50.642Z,29152.00
2022-09-26T08:23:50.604Z,25824.00
2022-09-26T08:24:50.565Z,6436.00
2022-09-26T08:25:50.558Z,4472.00
2022-09-26T08:26:50.544Z,4224.00
2022-09-26T08:27:50.534Z,4092.00
2022-09-26T08:28:50.556Z,3964.00
2022-09-26T08:29:50.509Z,3836.00
2022-09-26T08:30:50.556Z,3828.00
2022-09-26T08:31:50.508Z,3752.00
2022-09-26T08:32:50.467Z,3660.00
2022-09-26T08:33:50.477Z,3656.00
2022-09-26T08:34:50.449Z,3620.00
2022-09-26T08:35:50.445Z,3576.00
2022-09-26T08:36:50.417Z,3492.00
2022-09-26T08:37:50.407Z,3468.00
2022-09-26T08:38:50.406Z,3412.00
2022-09-26T08:39:50.385Z,3364.00
2022-09-26T08:40:50.446Z,3364.00
2022-09-26T08:41:50.372Z,3336.00
2022-09-26T08:42:50.339Z,3284.00
2022-09-26T08:43:50.338Z,3280.00
2022-09-26T08:44:50.308Z,3236.00
2022-09-26T08:45:50.308Z,3204.00
2022-09-26T08:46:50.337Z,3220.00
2022-09-26T08:47:50.270Z,3184.00
2022-09-26T08:48:50.346Z,3184.00
2022-09-26T08:49:50.272Z,3196.00
2022-09-26T08:50:50.261Z,3148.00
2022-09-26T08:51:50.241Z,3108.00
2022-09-26T08:52:50.254Z,3152.00
2022-09-26T08:53:50.217Z,3060.00
2022-09-26T08:54:50.192Z,3148.00
2022-09-26T08:55:50.189Z,3160.00
2022-09-26T08:56:50.228Z,3128.00
2022-09-26T08:57:50.165Z,3060.00
2022-09-26T08:58:50.191Z,3096.00
2022-09-26T08:59:50.136Z,3152.00
2022-09-26T09:00:50.124Z,3068.00
2022-09-26T09:01:50.249Z,2980.00
2022-09-26T09:02:50.208Z,2964.00
2022-09-26T09:03:50.088Z,2948.00
2022-09-26T09:04:53.808Z,2932.00
2022-09-26T09:06:09.926Z,2928.00
2022-09-26T09:06:50.056Z,2924.00
2022-09-26T09:07:50.038Z,2904.00
2022-09-26T09:08:50.007Z,2912.00
2022-09-26T09:09:49.998Z,2912.00
2022-09-26T09:10:49.989Z,2896.00
2022-09-26T09:11:51.205Z,2800.00
2022-09-26T09:12:49.967Z,2728.00
2022-09-26T09:13:49.960Z,2744.00
2022-09-26T09:15:07.687Z,2744.00
2022-09-26T09:15:50.976Z,2760.00
2022-09-26T09:16:49.922Z,2836.00
2022-09-26T09:17:49.933Z,2752.00
2022-09-26T09:18:49.935Z,2756.00
2022-09-26T09:19:49.882Z,2772.00
2022-09-26T09:20:49.867Z,2712.00
2022-09-26T09:21:49.858Z,2712.00
2022-09-26T09:22:49.859Z,2856.00
2022-09-26T09:23:49.820Z,2720.00
2022-09-26T09:24:49.804Z,2708.00
2022-09-26T09:25:49.848Z,2404.00
2022-09-26T09:27:54.457Z,2828.00
2022-09-26T09:28:49.813Z,2880.00
2022-09-26T09:29:49.883Z,2940.00
2022-09-26T09:30:49.726Z,2924.00
2022-09-26T09:31:49.721Z,2896.00
2022-09-26T09:32:49.740Z,2776.00
2022-09-26T09:33:49.713Z,2796.00
2022-09-26T09:34:53.632Z,2804.00
2022-09-26T09:35:49.676Z,2864.00
2022-09-26T09:36:49.681Z,2696.00
2022-09-26T09:37:49.652Z,2692.00
2022-09-26T09:38:49.682Z,2692.00
2022-09-26T09:39:49.619Z,2720.00
2022-09-26T09:40:49.710Z,2648.00
2022-09-26T09:41:49.601Z,2648.00
2022-09-26T09:42:49.594Z,2648.00
2022-09-26T09:43:49.586Z,2676.00
2022-09-26T09:44:49.587Z,2640.00
2022-09-26T09:45:49.575Z,2568.00
2022-09-26T09:46:49.609Z,2588.00
2022-09-26T09:47:49.533Z,2524.00
2022-09-26T09:48:49.561Z,2532.00
2022-09-26T09:49:49.551Z,2536.00
2022-09-26T09:50:49.506Z,2552.00
2022-09-26T09:51:49.485Z,2568.00
2022-09-26T09:52:49.492Z,2564.00
2022-09-26T09:53:49.446Z,2540.00
2022-09-26T09:54:49.432Z,2524.00
2022-09-26T09:55:49.415Z,2520.00
2022-09-26T09:56:49.394Z,2500.00
2022-09-26T09:57:49.407Z,2512.00
2022-09-26T09:58:49.412Z,2600.00
2022-09-26T09:59:49.356Z,2476.00
2022-09-26T10:00:51.339Z,2456.00
2022-09-26T10:01:49.359Z,2420.00
2022-09-26T10:02:49.395Z,2348.00
2022-09-26T10:03:49.319Z,2360.00
2022-09-26T10:04:49.304Z,2392.00
2022-09-26T10:05:49.290Z,2404.00
2022-09-26T10:06:49.272Z,2392.00
2022-09-26T10:07:49.289Z,2376.00
2022-09-26T10:08:49.321Z,2364.00
2022-09-26T10:09:49.246Z,2340.00
2022-09-26T10:10:49.239Z,2320.00
2022-09-26T10:11:52.556Z,2288.00
2022-09-26T10:12:49.208Z,2300.00
2022-09-26T10:13:49.254Z,2284.00
2022-09-26T10:14:49.182Z,2288.00
2022-09-26T10:15:49.304Z,2320.00
2022-09-26T10:16:49.168Z,2424.00
2022-09-26T10:18:12.785Z,2416.00
2022-09-26T10:18:50.114Z,2448.00
2022-09-26T10:19:49.108Z,2496.00
2022-09-26T10:20:49.118Z,2536.00
2022-09-26T10:21:49.080Z,2528.00
2022-09-26T10:22:49.081Z,2584.00
2022-09-26T10:23:49.064Z,2440.00
2022-09-26T10:24:49.040Z,2412.00
2022-09-26T10:25:49.029Z,2368.00
2022-09-26T10:26:49.022Z,2304.00
2022-09-26T10:27:49.020Z,2216.00
2022-09-26T10:28:49.044Z,2244.00
2022-09-26T10:29:48.974Z,2280.00
2022-09-26T10:30:49.007Z,2264.00
2022-09-26T10:31:49.040Z,2288.00
2022-09-26T10:32:52.793Z,2276.00
2022-09-26T10:33:49.921Z,2284.00
2022-09-26T10:34:48.912Z,2252.00
2022-09-26T10:35:48.894Z,2268.00
2022-09-26T10:36:48.893Z,2304.00
2022-09-26T10:37:48.891Z,2272.00
2022-09-26T10:38:48.925Z,1324.00
2022-09-26T10:39:48.853Z,1320.00
2022-09-26T10:40:48.919Z,2196.00
2022-09-26T10:41:48.842Z,2232.00
2022-09-26T10:42:48.841Z,2276.00
2022-09-26T10:43:48.808Z,2312.00
2022-09-26T10:44:48.803Z,2368.00
2022-09-26T10:45:48.764Z,2120.00
2022-09-26T10:46:48.866Z,1612.00
2022-09-26T10:47:48.753Z,1644.00
2022-09-26T10:48:48.850Z,1468.00
2022-09-26T10:49:48.716Z,1520.00
2022-09-26T10:50:48.705Z,1616.00
2022-09-26T10:51:48.684Z,1720.00
2022-09-26T10:52:48.701Z,1848.00
2022-09-26T10:53:48.665Z,1956.00
2022-09-26T10:54:48.664Z,2004.00
2022-09-26T10:55:48.634Z,2016.00
2022-09-26T10:56:48.634Z,2008.00
2022-09-26T10:57:48.613Z,1952.00
2022-09-26T10:58:48.648Z,1916.00
2022-09-26T10:59:48.596Z,1848.00
2022-09-26T11:00:48.580Z,1820.00
2022-09-26T11:01:48.667Z,1816.00
2022-09-26T11:02:48.569Z,1780.00
2022-09-26T11:03:48.588Z,1836.00
2022-09-26T11:04:48.525Z,2044.00
2022-09-26T11:05:48.504Z,2048.00
2022-09-26T11:06:48.516Z,2236.00
2022-09-26T11:07:48.484Z,2528.00
2022-09-26T11:08:48.527Z,3388.00
2022-09-26T11:09:48.455Z,3016.00
2022-09-26T11:10:48.458Z,3016.00
2022-09-26T11:11:48.443Z,2800.00
2022-09-26T11:12:48.427Z,2520.00
2022-09-26T11:13:48.405Z,2336.00
2022-09-26T11:14:48.396Z,2472.00
2022-09-26T11:15:48.442Z,1792.00
2022-09-26T11:16:48.377Z,1696.00
2022-09-26T11:17:48.344Z,1716.00
2022-09-26T11:18:48.372Z,1708.00
2022-09-26T11:19:53.800Z,1760.00
2022-09-26T11:20:49.320Z,1776.00
2022-09-26T11:21:48.311Z,1804.00
2022-09-26T11:22:48.363Z,1796.00
2022-09-26T11:23:48.287Z,1832.00
2022-09-26T11:24:48.276Z,1852.00
2022-09-26T11:25:48.253Z,1788.00
2022-09-26T11:26:48.257Z,1708.00
2022-09-26T11:27:48.230Z,1632.00
2022-09-26T11:28:48.280Z,1632.00
2022-09-26T11:29:48.201Z,1704.00
2022-09-26T11:30:48.301Z,1708.00
2022-09-26T11:31:48.247Z,1676.00
2022-09-26T11:32:48.157Z,1628.00
2022-09-26T11:33:48.167Z,1596.00
2022-09-26T11:34:48.136Z,1600.00
2022-09-26T11:35:48.130Z,1612.00
2022-09-26T11:36:48.116Z,1660.00
2022-09-26T11:37:48.151Z,1700.00
2022-09-26T11:38:48.213Z,1728.00
2022-09-26T11:39:48.060Z,1748.00
2022-09-26T11:40:48.142Z,1924.00
2022-09-26T11:41:48.060Z,1948.00
2022-09-26T11:42:48.030Z,1900.00
2022-09-26T11:43:48.020Z,1860.00
2022-09-26T11:44:48.011Z,1836.00
2022-09-26T11:45:47.988Z,1812.00
2022-09-26T11:46:48.059Z,1780.00
2022-09-26T11:47:47.975Z,1764.00
2022-09-26T11:48:47.971Z,1716.00
2022-09-26T11:49:47.948Z,1644.00
2022-09-26T11:50:47.926Z,1600.00
2022-09-26T11:51:47.929Z,1608.00
2022-09-26T11:52:49.368Z,1828.00
2022-09-26T11:53:47.880Z,2536.00
2022-09-26T11:54:47.869Z,1628.00
2022-09-26T11:55:47.878Z,1780.00
2022-09-26T11:56:47.849Z,1920.00
2022-09-26T11:57:47.856Z,2088.00
2022-09-26T11:58:47.830Z,2220.00
2022-09-26T11:59:47.813Z,2656.00
2022-09-26T12:00:47.821Z,2972.00
2022-09-26T12:01:47.780Z,2512.00
2022-09-26T12:02:47.842Z,2192.00
2022-09-26T12:03:47.817Z,2344.00
2022-09-26T12:04:47.810Z,2264.00
2022-09-26T12:05:47.740Z,2984.00
2022-09-26T12:06:47.784Z,2860.00
2022-09-26T12:07:47.719Z,2916.00
2022-09-26T12:08:47.702Z,2876.00
2022-09-26T12:09:47.682Z,2848.00
2022-09-26T12:10:47.675Z,2812.00
2022-09-26T12:11:47.649Z,2696.00
2022-09-26T12:12:47.632Z,2736.00
2022-09-26T12:13:47.620Z,2684.00
2022-09-26T12:14:47.622Z,2644.00
2022-09-26T12:15:47.650Z,2696.00
2022-09-26T12:16:47.592Z,2628.00
2022-09-26T12:17:47.571Z,2596.00
2022-09-26T12:19:03.182Z,2528.00
2022-09-26T12:19:47.543Z,2460.00
2022-09-26T12:20:47.533Z,2408.00
2022-09-26T12:21:47.521Z,1620.00
2022-09-26T12:22:47.506Z,2316.00
2022-09-26T12:23:47.504Z,2332.00
2022-09-26T12:24:47.475Z,2240.00
2022-09-26T12:25:47.500Z,2236.00
2022-09-26T12:26:47.443Z,2248.00
2022-09-26T12:27:47.444Z,2224.00
2022-09-26T12:28:47.425Z,2208.00
2022-09-26T12:29:47.521Z,2152.00
2022-09-26T12:30:47.448Z,2176.00
2022-09-26T12:31:47.466Z,2172.00
2022-09-26T12:32:47.363Z,2084.00
2022-09-26T12:33:47.355Z,2032.00
2022-09-26T12:34:47.346Z,2236.00